sensor_id;sensor_type;location;lat;lon;timestamp;P1;durP1;ratioP1;P2;durP2;ratioP2
68475;SDS011;55464;48.266;14.188;2023-05-07T00:02:20;5.13;;;3.42;;
68475;SDS011;55464;48.266;14.188;2023-05-07T00:04:46;2.78;;;2.55;;
68475;SDS011;55464;48.266;14.188;2023-05-07T00:07:11;3.80;;;2.40;;
68475;SDS011;55464;48.266;14.188;2023-05-07T00:09:36;2.75;;;2.42;;
68475;SDS011;55464;48.266;14.188;2023-05-07T00:12:02;5.00;;;2.60;;
68475;SDS011;55464;48.266;14.188;2023-05-07T00:14:27;4.22;;;2.72;;
68475;SDS011;55464;48.266;14.188;2023-05-07T00:16:53;4.97;;;2.20;;
68475;SDS011;55464;48.266;14.188;2023-05-07T00:19:18;3.10;;;2.33;;
68475;SDS011;55464;48.266;14.188;2023-05-07T00:21:43;3.20;;;2.30;;
68475;SDS011;55464;48.266;14.188;2023-05-07T00:24:09;5.55;;;2.35;;
68475;SDS011;55464;48.266;14.188;2023-05-07T00:26:34;2.88;;;2.03;;
68475;SDS011;55464;48.266;14.188;2023-05-07T00:29:00;5.78;;;2.70;;
68475;SDS011;55464;48.266;14.188;2023-05-07T00:31:25;6.60;;;3.20;;
68475;SDS011;55464;48.266;14.188;2023-05-07T00:33:50;5.30;;;2.88;;
68475;SDS011;55464;48.266;14.188;2023-05-07T00:36:16;9.88;;;4.10;;
68475;SDS011;55464;48.266;14.188;2023-05-07T00:38:41;6.13;;;3.53;;
68475;SDS011;55464;48.266;14.188;2023-05-07T00:41:06;6.03;;;3.90;;
68475;SDS011;55464;48.266;14.188;2023-05-07T00:43:32;5.70;;;3.63;;
68475;SDS011;55464;48.266;14.188;2023-05-07T00:45:57;5.82;;;3.17;;
68475;SDS011;55464;48.266;14.188;2023-05-07T00:48:23;7.10;;;3.67;;
68475;SDS011;55464;48.266;14.188;2023-05-07T00:50:49;9.63;;;3.40;;
68475;SDS011;55464;48.266;14.188;2023-05-07T00:53:15;5.00;;;3.10;;
68475;SDS011;55464;48.266;14.188;2023-05-07T00:55:41;7.38;;;3.22;;
68475;SDS011;55464;48.266;14.188;2023-05-07T00:58:06;6.25;;;3.60;;
68475;SDS011;55464;48.266;14.188;2023-05-07T01:00:33;4.57;;;3.58;;
68475;SDS011;55464;48.266;14.188;2023-05-07T01:02:59;6.40;;;3.72;;
68475;SDS011;55464;48.266;14.188;2023-05-07T01:05:24;6.47;;;3.38;;
68475;SDS011;55464;48.266;14.188;2023-05-07T01:07:53;5.05;;;2.97;;
68475;SDS011;55464;48.266;14.188;2023-05-07T01:10:20;3.83;;;3.45;;
68475;SDS011;55464;48.266;14.188;2023-05-07T01:12:46;3.83;;;3.53;;
68475;SDS011;55464;48.266;14.188;2023-05-07T01:15:12;7.00;;;3.90;;
68475;SDS011;55464;48.266;14.188;2023-05-07T01:17:40;3.53;;;3.17;;
68475;SDS011;55464;48.266;14.188;2023-05-07T01:20:06;4.88;;;3.45;;
68475;SDS011;55464;48.266;14.188;2023-05-07T01:22:37;5.00;;;3.55;;
68475;SDS011;55464;48.266;14.188;2023-05-07T01:25:03;4.43;;;3.25;;
68475;SDS011;55464;48.266;14.188;2023-05-07T01:27:29;4.95;;;3.20;;
68475;SDS011;55464;48.266;14.188;2023-05-07T01:29:55;5.45;;;3.15;;
68475;SDS011;55464;48.266;14.188;2023-05-07T01:32:21;3.72;;;3.08;;
68475;SDS011;55464;48.266;14.188;2023-05-07T01:35:11;4.70;;;3.40;;
68475;SDS011;55464;48.266;14.188;2023-05-07T01:37:42;3.35;;;3.05;;
68475;SDS011;55464;48.266;14.188;2023-05-07T01:40:08;3.28;;;2.97;;
68475;SDS011;55464;48.266;14.188;2023-05-07T01:42:34;6.78;;;3.03;;
68475;SDS011;55464;48.266;14.188;2023-05-07T01:45:00;4.80;;;3.00;;
68475;SDS011;55464;48.266;14.188;2023-05-07T01:47:26;3.17;;;2.88;;
68475;SDS011;55464;48.266;14.188;2023-05-07T01:49:51;4.00;;;3.22;;
68475;SDS011;55464;48.266;14.188;2023-05-07T01:52:17;5.03;;;2.95;;
68475;SDS011;55464;48.266;14.188;2023-05-07T01:54:42;3.42;;;2.70;;
68475;SDS011;55464;48.266;14.188;2023-05-07T01:57:08;4.07;;;2.88;;
68475;SDS011;55464;48.266;14.188;2023-05-07T01:59:33;4.18;;;3.13;;
68475;SDS011;55464;48.266;14.188;2023-05-07T02:01:59;3.63;;;2.83;;
68475;SDS011;55464;48.266;14.188;2023-05-07T02:04:25;6.00;;;3.05;;
68475;SDS011;55464;48.266;14.188;2023-05-07T02:06:51;7.35;;;2.50;;
68475;SDS011;55464;48.266;14.188;2023-05-07T02:09:17;2.17;;;1.98;;
68475;SDS011;55464;48.266;14.188;2023-05-07T02:11:43;4.13;;;2.33;;
68475;SDS011;55464;48.266;14.188;2023-05-07T02:14:08;3.97;;;3.15;;
68475;SDS011;55464;48.266;14.188;2023-05-07T02:16:33;2.67;;;2.15;;
68475;SDS011;55464;48.266;14.188;2023-05-07T02:18:59;3.78;;;2.40;;
68475;SDS011;55464;48.266;14.188;2023-05-07T02:21:24;2.60;;;2.27;;
68475;SDS011;55464;48.266;14.188;2023-05-07T02:23:50;3.35;;;2.65;;
68475;SDS011;55464;48.266;14.188;2023-05-07T02:26:15;2.42;;;2.22;;
68475;SDS011;55464;48.266;14.188;2023-05-07T02:28:41;3.40;;;2.47;;
68475;SDS011;55464;48.266;14.188;2023-05-07T02:31:06;2.95;;;2.65;;
68475;SDS011;55464;48.266;14.188;2023-05-07T02:33:32;3.80;;;2.42;;
68475;SDS011;55464;48.266;14.188;2023-05-07T02:36:05;4.32;;;2.17;;
68475;SDS011;55464;48.266;14.188;2023-05-07T02:38:39;3.58;;;2.70;;
68475;SDS011;55464;48.266;14.188;2023-05-07T02:41:04;4.15;;;2.92;;
68475;SDS011;55464;48.266;14.188;2023-05-07T02:43:30;4.75;;;2.75;;
68475;SDS011;55464;48.266;14.188;2023-05-07T02:46:05;4.13;;;3.17;;
68475;SDS011;55464;48.266;14.188;2023-05-07T02:48:31;4.95;;;3.47;;
68475;SDS011;55464;48.266;14.188;2023-05-07T02:50:57;6.32;;;3.50;;
68475;SDS011;55464;48.266;14.188;2023-05-07T02:53:23;3.97;;;3.03;;
68475;SDS011;55464;48.266;14.188;2023-05-07T02:55:51;3.53;;;3.22;;
68475;SDS011;55464;48.266;14.188;2023-05-07T02:58:26;2.92;;;2.65;;
68475;SDS011;55464;48.266;14.188;2023-05-07T03:00:52;7.18;;;3.40;;
68475;SDS011;55464;48.266;14.188;2023-05-07T03:03:19;3.80;;;3.22;;
68475;SDS011;55464;48.266;14.188;2023-05-07T03:05:45;4.10;;;2.85;;
68475;SDS011;55464;48.266;14.188;2023-05-07T03:08:10;7.70;;;3.30;;
68475;SDS011;55464;48.266;14.188;2023-05-07T03:10:36;3.80;;;3.45;;
68475;SDS011;55464;48.266;14.188;2023-05-07T03:13:02;3.28;;;2.83;;
68475;SDS011;55464;48.266;14.188;2023-05-07T03:15:28;3.72;;;3.10;;
68475;SDS011;55464;48.266;14.188;2023-05-07T03:17:53;4.70;;;2.90;;
68475;SDS011;55464;48.266;14.188;2023-05-07T03:20:19;3.28;;;2.97;;
68475;SDS011;55464;48.266;14.188;2023-05-07T03:22:44;2.95;;;2.60;;
68475;SDS011;55464;48.266;14.188;2023-05-07T03:25:10;5.70;;;2.75;;
68475;SDS011;55464;48.266;14.188;2023-05-07T03:27:35;2.97;;;2.60;;
68475;SDS011;55464;48.266;14.188;2023-05-07T03:30:01;3.25;;;2.95;;
68475;SDS011;55464;48.266;14.188;2023-05-07T03:32:26;2.72;;;2.53;;
68475;SDS011;55464;48.266;14.188;2023-05-07T03:34:51;6.00;;;3.22;;
68475;SDS011;55464;48.266;14.188;2023-05-07T03:37:17;6.22;;;2.45;;
68475;SDS011;55464;48.266;14.188;2023-05-07T03:39:43;2.90;;;2.70;;
68475;SDS011;55464;48.266;14.188;2023-05-07T03:42:08;2.85;;;2.55;;
68475;SDS011;55464;48.266;14.188;2023-05-07T03:44:34;2.90;;;2.70;;
68475;SDS011;55464;48.266;14.188;2023-05-07T03:47:01;2.90;;;2.70;;
68475;SDS011;55464;48.266;14.188;2023-05-07T03:49:26;3.78;;;2.70;;
68475;SDS011;55464;48.266;14.188;2023-05-07T03:51:52;4.55;;;2.50;;
68475;SDS011;55464;48.266;14.188;2023-05-07T03:54:17;3.92;;;2.55;;
68475;SDS011;55464;48.266;14.188;2023-05-07T03:56:42;3.78;;;2.80;;
68475;SDS011;55464;48.266;14.188;2023-05-07T03:59:08;3.13;;;2.80;;
68475;SDS011;55464;48.266;14.188;2023-05-07T04:01:33;2.50;;;2.30;;
68475;SDS011;55464;48.266;14.188;2023-05-07T04:03:59;4.60;;;2.50;;
68475;SDS011;55464;48.266;14.188;2023-05-07T04:06:24;2.50;;;2.30;;
68475;SDS011;55464;48.266;14.188;2023-05-07T04:08:50;6.72;;;2.60;;
68475;SDS011;55464;48.266;14.188;2023-05-07T04:11:15;8.23;;;5.50;;
68475;SDS011;55464;48.266;14.188;2023-05-07T04:13:40;4.03;;;3.20;;
68475;SDS011;55464;48.266;14.188;2023-05-07T04:16:06;4.70;;;2.30;;
68475;SDS011;55464;48.266;14.188;2023-05-07T04:18:31;2.70;;;2.47;;
68475;SDS011;55464;48.266;14.188;2023-05-07T04:20:57;2.42;;;2.22;;
68475;SDS011;55464;48.266;14.188;2023-05-07T04:23:22;2.72;;;2.53;;
68475;SDS011;55464;48.266;14.188;2023-05-07T04:25:48;3.95;;;2.33;;
68475;SDS011;55464;48.266;14.188;2023-05-07T04:28:13;3.47;;;2.90;;
68475;SDS011;55464;48.266;14.188;2023-05-07T04:30:39;3.65;;;2.78;;
68475;SDS011;55464;48.266;14.188;2023-05-07T04:33:04;3.50;;;2.58;;
68475;SDS011;55464;48.266;14.188;2023-05-07T04:35:31;3.28;;;2.72;;
68475;SDS011;55464;48.266;14.188;2023-05-07T04:37:57;3.90;;;2.75;;
68475;SDS011;55464;48.266;14.188;2023-05-07T04:40:22;3.72;;;3.03;;
68475;SDS011;55464;48.266;14.188;2023-05-07T04:42:48;3.67;;;2.67;;
68475;SDS011;55464;48.266;14.188;2023-05-07T04:45:13;5.97;;;2.60;;
68475;SDS011;55464;48.266;14.188;2023-05-07T04:47:38;3.58;;;2.38;;
68475;SDS011;55464;48.266;14.188;2023-05-07T04:50:05;2.75;;;2.55;;
68475;SDS011;55464;48.266;14.188;2023-05-07T04:52:31;3.10;;;2.33;;
68475;SDS011;55464;48.266;14.188;2023-05-07T04:54:59;4.03;;;2.60;;
68475;SDS011;55464;48.266;14.188;2023-05-07T04:57:25;2.38;;;2.17;;
68475;SDS011;55464;48.266;14.188;2023-05-07T04:59:51;4.60;;;3.47;;
68475;SDS011;55464;48.266;14.188;2023-05-07T05:02:17;2.83;;;2.53;;
68475;SDS011;55464;48.266;14.188;2023-05-07T05:04:42;3.63;;;2.63;;
68475;SDS011;55464;48.266;14.188;2023-05-07T05:07:07;6.82;;;2.85;;
68475;SDS011;55464;48.266;14.188;2023-05-07T05:09:33;4.28;;;2.88;;
68475;SDS011;55464;48.266;14.188;2023-05-07T05:11:58;4.00;;;2.53;;
68475;SDS011;55464;48.266;14.188;2023-05-07T05:14:24;3.05;;;2.85;;
68475;SDS011;55464;48.266;14.188;2023-05-07T05:16:50;4.75;;;3.10;;
68475;SDS011;55464;48.266;14.188;2023-05-07T05:19:15;3.70;;;2.83;;
68475;SDS011;55464;48.266;14.188;2023-05-07T05:21:41;4.45;;;3.30;;
68475;SDS011;55464;48.266;14.188;2023-05-07T05:24:06;3.85;;;3.03;;
68475;SDS011;55464;48.266;14.188;2023-05-07T05:26:32;3.40;;;2.88;;
68475;SDS011;55464;48.266;14.188;2023-05-07T05:28:57;4.25;;;3.28;;
68475;SDS011;55464;48.266;14.188;2023-05-07T05:31:23;4.90;;;3.30;;
68475;SDS011;55464;48.266;14.188;2023-05-07T05:33:48;4.68;;;3.30;;
68475;SDS011;55464;48.266;14.188;2023-05-07T05:36:13;3.88;;;3.17;;
68475;SDS011;55464;48.266;14.188;2023-05-07T05:38:39;5.43;;;3.60;;
68475;SDS011;55464;48.266;14.188;2023-05-07T05:41:05;4.13;;;3.50;;
68475;SDS011;55464;48.266;14.188;2023-05-07T05:43:30;4.70;;;3.83;;
68475;SDS011;55464;48.266;14.188;2023-05-07T05:45:56;6.28;;;3.75;;
68475;SDS011;55464;48.266;14.188;2023-05-07T05:48:22;6.35;;;3.58;;
68475;SDS011;55464;48.266;14.188;2023-05-07T05:50:47;5.85;;;3.80;;
68475;SDS011;55464;48.266;14.188;2023-05-07T05:53:14;9.45;;;3.92;;
68475;SDS011;55464;48.266;14.188;2023-05-07T05:55:40;5.22;;;3.78;;
68475;SDS011;55464;48.266;14.188;2023-05-07T05:58:06;6.65;;;4.22;;
68475;SDS011;55464;48.266;14.188;2023-05-07T06:00:32;5.03;;;3.60;;
68475;SDS011;55464;48.266;14.188;2023-05-07T06:02:57;5.25;;;3.60;;
68475;SDS011;55464;48.266;14.188;2023-05-07T06:05:22;6.32;;;4.72;;
68475;SDS011;55464;48.266;14.188;2023-05-07T06:07:48;8.05;;;5.20;;
68475;SDS011;55464;48.266;14.188;2023-05-07T06:10:13;9.63;;;5.97;;
68475;SDS011;55464;48.266;14.188;2023-05-07T06:12:39;7.57;;;4.43;;
68475;SDS011;55464;48.266;14.188;2023-05-07T06:15:04;5.93;;;3.78;;
68475;SDS011;55464;48.266;14.188;2023-05-07T06:17:30;3.60;;;3.17;;
68475;SDS011;55464;48.266;14.188;2023-05-07T06:19:56;4.40;;;2.92;;
68475;SDS011;55464;48.266;14.188;2023-05-07T06:22:21;4.75;;;3.17;;
68475;SDS011;55464;48.266;14.188;2023-05-07T06:24:46;7.50;;;3.13;;
68475;SDS011;55464;48.266;14.188;2023-05-07T06:27:12;4.55;;;3.40;;
68475;SDS011;55464;48.266;14.188;2023-05-07T06:29:37;4.38;;;2.83;;
68475;SDS011;55464;48.266;14.188;2023-05-07T06:32:09;4.00;;;2.88;;
68475;SDS011;55464;48.266;14.188;2023-05-07T06:34:38;5.45;;;2.78;;
68475;SDS011;55464;48.266;14.188;2023-05-07T06:37:04;5.28;;;2.88;;
68475;SDS011;55464;48.266;14.188;2023-05-07T06:39:30;4.45;;;3.10;;
68475;SDS011;55464;48.266;14.188;2023-05-07T06:41:56;3.35;;;3.05;;
68475;SDS011;55464;48.266;14.188;2023-05-07T06:44:22;3.08;;;2.65;;
68475;SDS011;55464;48.266;14.188;2023-05-07T06:46:47;2.85;;;2.65;;
68475;SDS011;55464;48.266;14.188;2023-05-07T06:49:13;3.05;;;2.75;;
68475;SDS011;55464;48.266;14.188;2023-05-07T06:51:38;4.13;;;2.95;;
68475;SDS011;55464;48.266;14.188;2023-05-07T06:54:04;3.53;;;2.70;;
68475;SDS011;55464;48.266;14.188;2023-05-07T06:56:30;3.42;;;2.47;;
68475;SDS011;55464;48.266;14.188;2023-05-07T06:58:55;3.92;;;2.95;;
68475;SDS011;55464;48.266;14.188;2023-05-07T07:01:21;2.72;;;2.38;;
68475;SDS011;55464;48.266;14.188;2023-05-07T07:03:47;2.80;;;2.47;;
68475;SDS011;55464;48.266;14.188;2023-05-07T07:06:12;8.32;;;3.40;;
68475;SDS011;55464;48.266;14.188;2023-05-07T07:08:37;4.70;;;3.15;;
68475;SDS011;55464;48.266;14.188;2023-05-07T07:11:04;4.28;;;3.35;;
68475;SDS011;55464;48.266;14.188;2023-05-07T07:13:29;3.42;;;3.08;;
68475;SDS011;55464;48.266;14.188;2023-05-07T07:15:55;5.90;;;3.80;;
68475;SDS011;55464;48.266;14.188;2023-05-07T07:18:20;6.88;;;4.22;;
68475;SDS011;55464;48.266;14.188;2023-05-07T07:20:46;5.50;;;3.90;;
68475;SDS011;55464;48.266;14.188;2023-05-07T07:23:11;7.97;;;4.38;;
68475;SDS011;55464;48.266;14.188;2023-05-07T07:25:36;5.05;;;3.70;;
68475;SDS011;55464;48.266;14.188;2023-05-07T07:28:02;4.80;;;4.00;;
68475;SDS011;55464;48.266;14.188;2023-05-07T07:30:27;4.63;;;3.53;;
68475;SDS011;55464;48.266;14.188;2023-05-07T07:32:53;4.35;;;3.55;;
68475;SDS011;55464;48.266;14.188;2023-05-07T07:35:19;4.18;;;3.50;;
68475;SDS011;55464;48.266;14.188;2023-05-07T07:37:44;6.60;;;3.97;;
68475;SDS011;55464;48.266;14.188;2023-05-07T07:40:10;5.40;;;4.38;;
68475;SDS011;55464;48.266;14.188;2023-05-07T07:42:36;9.30;;;4.10;;
68475;SDS011;55464;48.266;14.188;2023-05-07T07:45:02;4.10;;;3.67;;
68475;SDS011;55464;48.266;14.188;2023-05-07T07:47:28;5.53;;;3.42;;
68475;SDS011;55464;48.266;14.188;2023-05-07T07:49:53;5.22;;;3.67;;
68475;SDS011;55464;48.266;14.188;2023-05-07T07:52:18;5.53;;;3.85;;
68475;SDS011;55464;48.266;14.188;2023-05-07T07:54:44;6.88;;;3.85;;
68475;SDS011;55464;48.266;14.188;2023-05-07T07:57:10;7.95;;;4.88;;
68475;SDS011;55464;48.266;14.188;2023-05-07T07:59:35;8.90;;;5.10;;
68475;SDS011;55464;48.266;14.188;2023-05-07T08:02:01;7.03;;;4.68;;
68475;SDS011;55464;48.266;14.188;2023-05-07T08:04:26;5.90;;;4.35;;
68475;SDS011;55464;48.266;14.188;2023-05-07T08:06:51;9.10;;;4.95;;
68475;SDS011;55464;48.266;14.188;2023-05-07T08:09:19;6.22;;;4.47;;
68475;SDS011;55464;48.266;14.188;2023-05-07T08:11:44;5.43;;;3.83;;
68475;SDS011;55464;48.266;14.188;2023-05-07T08:14:10;7.22;;;4.15;;
68475;SDS011;55464;48.266;14.188;2023-05-07T08:16:36;4.68;;;3.60;;
68475;SDS011;55464;48.266;14.188;2023-05-07T08:19:01;6.88;;;3.95;;
68475;SDS011;55464;48.266;14.188;2023-05-07T08:21:26;10.18;;;3.88;;
68475;SDS011;55464;48.266;14.188;2023-05-07T08:23:52;5.55;;;4.07;;
68475;SDS011;55464;48.266;14.188;2023-05-07T08:26:17;5.22;;;4.22;;
68475;SDS011;55464;48.266;14.188;2023-05-07T08:28:42;5.35;;;3.58;;
68475;SDS011;55464;48.266;14.188;2023-05-07T08:31:08;6.78;;;4.18;;
68475;SDS011;55464;48.266;14.188;2023-05-07T08:33:33;8.23;;;4.32;;
68475;SDS011;55464;48.266;14.188;2023-05-07T08:35:59;5.85;;;4.20;;
68475;SDS011;55464;48.266;14.188;2023-05-07T08:38:24;4.45;;;4.00;;
68475;SDS011;55464;48.266;14.188;2023-05-07T08:40:49;5.47;;;4.07;;
68475;SDS011;55464;48.266;14.188;2023-05-07T08:43:15;4.13;;;3.50;;
68475;SDS011;55464;48.266;14.188;2023-05-07T08:45:42;7.32;;;4.13;;
68475;SDS011;55464;48.266;14.188;2023-05-07T08:48:16;5.20;;;3.47;;
68475;SDS011;55464;48.266;14.188;2023-05-07T08:50:42;4.97;;;3.90;;
68475;SDS011;55464;48.266;14.188;2023-05-07T08:53:07;4.95;;;4.00;;
68475;SDS011;55464;48.266;14.188;2023-05-07T08:55:33;5.38;;;4.10;;
68475;SDS011;55464;48.266;14.188;2023-05-07T08:57:59;4.85;;;3.20;;
68475;SDS011;55464;48.266;14.188;2023-05-07T09:00:25;4.97;;;3.28;;
68475;SDS011;55464;48.266;14.188;2023-05-07T09:02:51;7.35;;;3.92;;
68475;SDS011;55464;48.266;14.188;2023-05-07T09:05:18;6.20;;;3.60;;
68475;SDS011;55464;48.266;14.188;2023-05-07T09:07:43;6.25;;;4.32;;
68475;SDS011;55464;48.266;14.188;2023-05-07T09:10:09;4.53;;;3.75;;
68475;SDS011;55464;48.266;14.188;2023-05-07T09:12:35;5.55;;;3.65;;
68475;SDS011;55464;48.266;14.188;2023-05-07T09:15:01;6.45;;;3.72;;
68475;SDS011;55464;48.266;14.188;2023-05-07T09:17:27;6.97;;;3.38;;
68475;SDS011;55464;48.266;14.188;2023-05-07T09:19:53;4.25;;;3.58;;
68475;SDS011;55464;48.266;14.188;2023-05-07T09:22:18;4.78;;;3.60;;
68475;SDS011;55464;48.266;14.188;2023-05-07T09:24:51;4.75;;;2.90;;
68475;SDS011;55464;48.266;14.188;2023-05-07T09:27:17;6.80;;;3.28;;
68475;SDS011;55464;48.266;14.188;2023-05-07T09:29:45;3.63;;;3.28;;
68475;SDS011;55464;48.266;14.188;2023-05-07T09:32:10;5.03;;;3.08;;
68475;SDS011;55464;48.266;14.188;2023-05-07T09:34:36;6.22;;;4.13;;
68475;SDS011;55464;48.266;14.188;2023-05-07T09:37:02;6.88;;;4.13;;
68475;SDS011;55464;48.266;14.188;2023-05-07T09:39:41;7.85;;;3.63;;
68475;SDS011;55464;48.266;14.188;2023-05-07T09:42:08;5.38;;;3.80;;
68475;SDS011;55464;48.266;14.188;2023-05-07T09:44:34;5.97;;;3.72;;
68475;SDS011;55464;48.266;14.188;2023-05-07T09:47:00;9.68;;;4.85;;
68475;SDS011;55464;48.266;14.188;2023-05-07T09:49:29;7.20;;;3.92;;
68475;SDS011;55464;48.266;14.188;2023-05-07T09:51:55;8.25;;;3.88;;
68475;SDS011;55464;48.266;14.188;2023-05-07T09:54:23;5.65;;;4.15;;
68475;SDS011;55464;48.266;14.188;2023-05-07T09:56:49;6.55;;;3.80;;
68475;SDS011;55464;48.266;14.188;2023-05-07T09:59:18;5.95;;;4.15;;
68475;SDS011;55464;48.266;14.188;2023-05-07T10:01:45;4.53;;;3.30;;
68475;SDS011;55464;48.266;14.188;2023-05-07T10:04:11;10.10;;;3.90;;
68475;SDS011;55464;48.266;14.188;2023-05-07T10:06:37;7.03;;;3.88;;
68475;SDS011;55464;48.266;14.188;2023-05-07T10:09:03;6.47;;;3.95;;
68475;SDS011;55464;48.266;14.188;2023-05-07T10:11:35;8.80;;;4.20;;
68475;SDS011;55464;48.266;14.188;2023-05-07T10:14:02;6.03;;;4.28;;
68475;SDS011;55464;48.266;14.188;2023-05-07T10:16:33;8.43;;;5.22;;
68475;SDS011;55464;48.266;14.188;2023-05-07T10:19:05;10.07;;;5.45;;
68475;SDS011;55464;48.266;14.188;2023-05-07T10:21:54;7.13;;;4.50;;
68475;SDS011;55464;48.266;14.188;2023-05-07T10:24:33;5.68;;;4.60;;
68475;SDS011;55464;48.266;14.188;2023-05-07T10:27:01;13.88;;;7.00;;
68475;SDS011;55464;48.266;14.188;2023-05-07T10:29:37;9.68;;;5.85;;
68475;SDS011;55464;48.266;14.188;2023-05-07T10:35:18;8.27;;;5.13;;
68475;SDS011;55464;48.266;14.188;2023-05-07T10:37:46;10.43;;;5.83;;
68475;SDS011;55464;48.266;14.188;2023-05-07T10:40:13;7.80;;;5.55;;
68475;SDS011;55464;48.266;14.188;2023-05-07T10:42:39;8.48;;;6.40;;
68475;SDS011;55464;48.266;14.188;2023-05-07T10:45:17;5.13;;;3.80;;
68475;SDS011;55464;48.266;14.188;2023-05-07T10:50:37;8.32;;;4.28;;
68475;SDS011;55464;48.266;14.188;2023-05-07T10:55:42;5.70;;;3.88;;
68475;SDS011;55464;48.266;14.188;2023-05-07T10:58:26;4.93;;;3.08;;
68475;SDS011;55464;48.266;14.188;2023-05-07T11:01:00;4.93;;;3.65;;
68475;SDS011;55464;48.266;14.188;2023-05-07T11:03:26;4.60;;;3.20;;
68475;SDS011;55464;48.266;14.188;2023-05-07T11:06:14;4.38;;;3.50;;
68475;SDS011;55464;48.266;14.188;2023-05-07T11:08:59;4.22;;;3.78;;
68475;SDS011;55464;48.266;14.188;2023-05-07T11:11:57;6.35;;;4.13;;
68475;SDS011;55464;48.266;14.188;2023-05-07T11:17:07;6.63;;;4.75;;
68475;SDS011;55464;48.266;14.188;2023-05-07T11:19:55;9.38;;;4.28;;
68475;SDS011;55464;48.266;14.188;2023-05-07T11:25:02;11.13;;;4.00;;
68475;SDS011;55464;48.266;14.188;2023-05-07T11:27:28;3.95;;;3.55;;
68475;SDS011;55464;48.266;14.188;2023-05-07T11:29:54;5.32;;;4.20;;
68475;SDS011;55464;48.266;14.188;2023-05-07T11:32:28;5.18;;;4.20;;
68475;SDS011;55464;48.266;14.188;2023-05-07T11:34:55;4.78;;;3.47;;
68475;SDS011;55464;48.266;14.188;2023-05-07T11:37:21;5.25;;;3.72;;
68475;SDS011;55464;48.266;14.188;2023-05-07T11:39:48;4.68;;;3.92;;
68475;SDS011;55464;48.266;14.188;2023-05-07T11:42:30;4.47;;;4.07;;
68475;SDS011;55464;48.266;14.188;2023-05-07T11:45:00;4.75;;;3.42;;
68475;SDS011;55464;48.266;14.188;2023-05-07T11:47:26;3.90;;;3.30;;
68475;SDS011;55464;48.266;14.188;2023-05-07T11:49:52;3.75;;;3.28;;
68475;SDS011;55464;48.266;14.188;2023-05-07T11:52:20;3.92;;;3.40;;
68475;SDS011;55464;48.266;14.188;2023-05-07T11:54:50;4.65;;;3.97;;
68475;SDS011;55464;48.266;14.188;2023-05-07T11:57:17;3.60;;;3.30;;
68475;SDS011;55464;48.266;14.188;2023-05-07T11:59:43;6.95;;;3.63;;
68475;SDS011;55464;48.266;14.188;2023-05-07T12:02:16;8.23;;;4.38;;
68475;SDS011;55464;48.266;14.188;2023-05-07T12:04:42;4.78;;;3.55;;
68475;SDS011;55464;48.266;14.188;2023-05-07T12:07:14;4.03;;;3.38;;
68475;SDS011;55464;48.266;14.188;2023-05-07T12:09:43;3.92;;;3.15;;
68475;SDS011;55464;48.266;14.188;2023-05-07T12:12:10;4.20;;;3.28;;
68475;SDS011;55464;48.266;14.188;2023-05-07T12:14:39;3.47;;;2.40;;
68475;SDS011;55464;48.266;14.188;2023-05-07T12:17:09;8.68;;;3.42;;
68475;SDS011;55464;48.266;14.188;2023-05-07T12:22:02;3.95;;;3.15;;
68475;SDS011;55464;48.266;14.188;2023-05-07T12:24:28;4.20;;;3.70;;
68475;SDS011;55464;48.266;14.188;2023-05-07T12:26:53;3.10;;;2.90;;
68475;SDS011;55464;48.266;14.188;2023-05-07T12:29:22;6.65;;;3.40;;
68475;SDS011;55464;48.266;14.188;2023-05-07T12:31:48;3.75;;;2.90;;
68475;SDS011;55464;48.266;14.188;2023-05-07T12:34:15;5.72;;;4.13;;
68475;SDS011;55464;48.266;14.188;2023-05-07T12:36:40;6.10;;;4.00;;
68475;SDS011;55464;48.266;14.188;2023-05-07T12:39:06;3.75;;;3.17;;
68475;SDS011;55464;48.266;14.188;2023-05-07T12:41:36;5.10;;;3.70;;
68475;SDS011;55464;48.266;14.188;2023-05-07T12:44:18;3.90;;;3.50;;
68475;SDS011;55464;48.266;14.188;2023-05-07T12:46:43;3.42;;;3.13;;
68475;SDS011;55464;48.266;14.188;2023-05-07T12:49:08;4.63;;;3.30;;
68475;SDS011;55464;48.266;14.188;2023-05-07T12:51:34;5.03;;;3.78;;
68475;SDS011;55464;48.266;14.188;2023-05-07T12:54:00;5.18;;;3.95;;
68475;SDS011;55464;48.266;14.188;2023-05-07T12:56:25;3.15;;;2.88;;
68475;SDS011;55464;48.266;14.188;2023-05-07T12:58:51;6.80;;;4.00;;
68475;SDS011;55464;48.266;14.188;2023-05-07T13:01:16;5.03;;;4.28;;
68475;SDS011;55464;48.266;14.188;2023-05-07T13:03:47;4.75;;;4.25;;
68475;SDS011;55464;48.266;14.188;2023-05-07T13:06:13;5.25;;;4.13;;
68475;SDS011;55464;48.266;14.188;2023-05-07T13:08:39;3.67;;;3.38;;
68475;SDS011;55464;48.266;14.188;2023-05-07T13:11:08;3.57;;;3.27;;
68475;SDS011;55464;48.266;14.188;2023-05-07T13:13:35;4.28;;;3.70;;
68475;SDS011;55464;48.266;14.188;2023-05-07T13:16:02;6.20;;;3.72;;
68475;SDS011;55464;48.266;14.188;2023-05-07T13:18:31;6.68;;;3.75;;
68475;SDS011;55464;48.266;14.188;2023-05-07T13:20:58;5.20;;;3.50;;
68475;SDS011;55464;48.266;14.188;2023-05-07T13:23:25;6.95;;;4.18;;
68475;SDS011;55464;48.266;14.188;2023-05-07T13:25:51;4.32;;;3.45;;
68475;SDS011;55464;48.266;14.188;2023-05-07T13:28:19;3.70;;;3.30;;
68475;SDS011;55464;48.266;14.188;2023-05-07T13:30:45;4.50;;;2.90;;
68475;SDS011;55464;48.266;14.188;2023-05-07T13:33:11;3.88;;;3.13;;
68475;SDS011;55464;48.266;14.188;2023-05-07T13:35:36;5.18;;;3.10;;
68475;SDS011;55464;48.266;14.188;2023-05-07T13:38:02;6.28;;;3.38;;
68475;SDS011;55464;48.266;14.188;2023-05-07T13:40:28;3.80;;;3.40;;
68475;SDS011;55464;48.266;14.188;2023-05-07T13:42:53;4.82;;;3.67;;
68475;SDS011;55464;48.266;14.188;2023-05-07T13:45:19;3.53;;;3.20;;
68475;SDS011;55464;48.266;14.188;2023-05-07T13:47:45;5.25;;;3.70;;
68475;SDS011;55464;48.266;14.188;2023-05-07T13:50:11;3.60;;;2.90;;
68475;SDS011;55464;48.266;14.188;2023-05-07T13:52:39;4.22;;;3.50;;
68475;SDS011;55464;48.266;14.188;2023-05-07T13:55:06;5.65;;;3.00;;
68475;SDS011;55464;48.266;14.188;2023-05-07T13:57:32;4.50;;;3.15;;
68475;SDS011;55464;48.266;14.188;2023-05-07T13:59:57;2.85;;;2.60;;
68475;SDS011;55464;48.266;14.188;2023-05-07T14:02:23;4.53;;;2.85;;
68475;SDS011;55464;48.266;14.188;2023-05-07T14:04:48;5.45;;;3.20;;
68475;SDS011;55464;48.266;14.188;2023-05-07T14:07:13;4.68;;;3.05;;
68475;SDS011;55464;48.266;14.188;2023-05-07T14:09:39;3.63;;;2.97;;
68475;SDS011;55464;48.266;14.188;2023-05-07T14:12:05;3.15;;;2.88;;
68475;SDS011;55464;48.266;14.188;2023-05-07T14:14:30;3.20;;;2.90;;
68475;SDS011;55464;48.266;14.188;2023-05-07T14:16:56;4.13;;;3.40;;
68475;SDS011;55464;48.266;14.188;2023-05-07T14:19:22;3.65;;;2.80;;
68475;SDS011;55464;48.266;14.188;2023-05-07T14:21:50;3.90;;;2.95;;
68475;SDS011;55464;48.266;14.188;2023-05-07T14:24:15;3.40;;;3.10;;
68475;SDS011;55464;48.266;14.188;2023-05-07T14:26:40;5.53;;;2.75;;
68475;SDS011;55464;48.266;14.188;2023-05-07T14:29:06;3.08;;;2.78;;
68475;SDS011;55464;48.266;14.188;2023-05-07T14:31:31;5.35;;;3.20;;
68475;SDS011;55464;48.266;14.188;2023-05-07T14:33:58;2.63;;;2.42;;
68475;SDS011;55464;48.266;14.188;2023-05-07T14:36:24;3.53;;;2.95;;
68475;SDS011;55464;48.266;14.188;2023-05-07T14:38:51;4.30;;;3.10;;
68475;SDS011;55464;48.266;14.188;2023-05-07T14:41:18;3.42;;;3.10;;
68475;SDS011;55464;48.266;14.188;2023-05-07T14:43:44;4.85;;;4.22;;
68475;SDS011;55464;48.266;14.188;2023-05-07T14:46:15;4.57;;;3.15;;
68475;SDS011;55464;48.266;14.188;2023-05-07T14:48:41;5.07;;;3.40;;